Time;durP1;ratioP1;P1;durP2;ratioP2;P2;SDS_P1;SDS_P2;PMS_P1;PMS_P2;Temp;Humidity;BMP_temperature;BMP_pressure;BME280_temperature;BME280_humidity;BME280_pressure;Samples;Min_cycle;Max_cycle;Signal;HPM_P1;HPM_P2
2024/02/12 00:01:33;;;;;;;11.77;8.02;;;20.40;99.90;;;;;;5013765;28;20046;-56
2024/02/12 00:03:58;;;;;;;10.93;7.25;;;20.40;99.90;;;;;;5013962;28;20092;-56
2024/02/12 00:06:24;;;;;;;10.15;7.90;;;20.40;99.90;;;;;;5013761;28;20026;-56
2024/02/12 00:08:51;;;;;;;11.48;7.38;;;20.40;99.90;;;;;;5013650;28;20044;-56
2024/02/12 00:11:18;;;;;;;10.50;7.03;;;20.40;99.90;;;;;;5012583;28;20385;-56
2024/02/12 00:13:44;;;;;;;12.30;7.57;;;20.40;99.90;;;;;;5013614;28;20022;-56
2024/02/12 00:16:09;;;;;;;10.90;6.97;;;20.40;99.90;;;;;;5013484;28;20441;-56
2024/02/12 00:18:36;;;;;;;12.70;7.72;;;20.40;99.90;;;;;;5013561;28;20026;-56
2024/02/12 00:21:03;;;;;;;11.07;7.10;;;20.40;99.90;;;;;;5013732;28;20026;-56
2024/02/12 00:23:29;;;;;;;11.63;7.40;;;20.40;99.90;;;;;;5013528;28;20424;-56
2024/02/12 00:25:55;;;;;;;11.15;7.10;;;20.40;99.90;;;;;;5013304;28;20037;-56
2024/02/12 00:28:22;;;;;;;10.20;6.78;;;20.40;99.90;;;;;;5013236;28;20471;-56
2024/02/12 00:30:48;;;;;;;11.73;7.38;;;20.40;99.90;;;;;;5013353;28;20478;-56
2024/02/12 00:33:14;;;;;;;12.65;7.38;;;20.40;99.90;;;;;;5012038;28;20148;-56
2024/02/12 00:35:41;;;;;;;11.32;6.93;;;20.40;99.90;;;;;;5013254;28;20022;-56
2024/02/12 00:38:07;;;;;;;16.15;7.07;;;20.40;99.90;;;;;;5013192;28;20033;-56
2024/02/12 00:40:34;;;;;;;11.70;7.20;;;20.40;99.90;;;;;;5012816;28;20496;-56
2024/02/12 00:43:00;;;;;;;10.50;6.73;;;20.40;99.90;;;;;;5012907;28;20581;-56
2024/02/12 00:45:27;;;;;;;13.23;7.40;;;20.40;99.90;;;;;;5012998;28;20303;-56
2024/02/12 00:47:56;;;;;;;10.85;6.43;;;20.40;99.90;;;;;;5013136;28;20049;-56
2024/02/12 00:50:22;;;;;;;10.45;6.30;;;20.40;99.90;;;;;;5013069;28;20056;-56
2024/02/12 00:52:49;;;;;;;10.68;6.75;;;20.40;99.90;;;;;;5012936;28;20025;-56
2024/02/12 00:55:16;;;;;;;12.90;7.07;;;20.40;99.90;;;;;;5013055;28;20104;-56
2024/02/12 00:57:43;;;;;;;11.52;7.25;;;20.40;99.90;;;;;;5012933;28;20025;-57
2024/02/12 01:00:14;;;;;;;11.13;7.38;;;20.40;99.90;;;;;;5012752;28;20648;-56
2024/02/12 01:02:41;;;;;;;12.30;6.90;;;20.40;99.90;;;;;;5012488;28;20089;-56
2024/02/12 01:05:10;;;;;;;11.85;7.82;;;20.40;99.90;;;;;;5012599;28;20433;-57
2024/02/12 01:07:38;;;;;;;10.73;6.68;;;20.40;99.90;;;;;;5012779;28;20030;-58
2024/02/12 01:10:04;;;;;;;10.82;6.72;;;20.40;99.90;;;;;;5012797;28;20018;-58
2024/02/12 01:12:30;;;;;;;13.70;6.20;;;20.40;99.90;;;;;;5012969;28;20056;-58
2024/02/12 01:14:57;;;;;;;11.32;6.55;;;20.40;99.90;;;;;;5012557;28;20026;-58
2024/02/12 01:17:23;;;;;;;12.38;6.88;;;20.40;99.90;;;;;;5012674;28;20025;-58
2024/02/12 01:19:53;;;;;;;9.90;6.75;;;20.40;99.90;;;;;;5012498;28;20038;-57
2024/02/12 01:22:19;;;;;;;14.55;8.43;;;20.40;99.90;;;;;;5012595;28;20079;-58
2024/02/12 01:24:46;;;;;;;10.88;6.43;;;20.50;99.90;;;;;;5011221;28;20037;-58
2024/02/12 01:27:12;;;;;;;10.77;5.97;;;20.40;99.90;;;;;;5012468;28;20026;-57
2024/02/12 01:29:40;;;;;;;11.23;6.57;;;20.40;99.90;;;;;;5012457;28;20060;-57
2024/02/12 01:32:09;;;;;;;9.73;6.35;;;20.40;99.90;;;;;;5012821;28;20026;-57
2024/02/12 01:34:36;;;;;;;14.35;6.13;;;20.40;99.90;;;;;;5011719;28;20375;-57
2024/02/12 01:37:02;;;;;;;9.93;5.50;;;20.40;99.90;;;;;;5012573;28;20026;-56
2024/02/12 01:39:28;;;;;;;9.75;6.03;;;20.40;99.90;;;;;;5012375;28;20061;-56
2024/02/12 01:41:54;;;;;;;12.75;6.72;;;20.40;99.90;;;;;;5012381;28;20053;-57
2024/02/12 01:44:20;;;;;;;11.75;6.43;;;20.40;99.90;;;;;;5012269;28;20034;-57
2024/02/12 01:46:48;;;;;;;10.65;6.32;;;20.40;99.90;;;;;;5012258;28;20093;-56
2024/02/12 01:49:19;;;;;;;15.18;6.40;;;20.40;99.90;;;;;;5012392;28;20025;-58
2024/02/12 01:51:48;;;;;;;9.73;5.85;;;20.40;99.90;;;;;;5010873;28;20532;-57
2024/02/12 01:54:17;;;;;;;11.82;5.65;;;20.40;99.90;;;;;;5016120;28;20026;-58
2024/02/12 01:56:46;;;;;;;12.70;6.82;;;20.40;99.90;;;;;;5016127;28;20359;-57
2024/02/12 01:59:18;;;;;;;12.25;6.13;;;20.40;99.90;;;;;;5016103;28;20036;-57
2024/02/12 02:01:45;;;;;;;10.55;6.28;;;20.50;99.90;;;;;;5054223;23;20051;-50
2024/02/12 02:04:12;;;;;;;7.93;5.63;;;20.40;99.90;;;;;;5055496;28;20436;-50
2024/02/12 02:06:38;;;;;;;12.02;5.88;;;20.40;99.90;;;;;;5056005;28;20481;-50
2024/02/12 02:09:06;;;;;;;11.65;6.20;;;20.40;99.90;;;;;;5055902;28;20070;-50
2024/02/12 02:11:32;;;;;;;10.73;6.65;;;20.40;99.90;;;;;;5055634;28;20052;-51
2024/02/12 02:13:58;;;;;;;12.10;6.68;;;20.40;99.90;;;;;;5055490;28;20057;-50
2024/02/12 02:16:24;;;;;;;10.88;5.95;;;20.40;99.90;;;;;;5055418;28;20021;-51
2024/02/12 02:18:52;;;;;;;11.18;6.32;;;20.40;99.90;;;;;;5055318;28;20029;-52
2024/02/12 02:21:21;;;;;;;13.70;6.00;;;20.40;99.90;;;;;;5055446;28;20029;-51
2024/02/12 02:23:51;;;;;;;8.15;5.60;;;20.40;99.90;;;;;;5055446;28;20147;-52
2024/02/12 02:26:16;;;;;;;8.98;5.78;;;20.40;99.90;;;;;;5055424;28;20021;-51
2024/02/12 02:28:42;;;;;;;10.75;5.43;;;20.40;99.90;;;;;;5055166;28;20029;-51
2024/02/12 02:31:08;;;;;;;7.82;5.57;;;20.40;99.90;;;;;;5055448;28;20484;-52
2024/02/12 02:33:35;;;;;;;10.25;5.88;;;20.40;99.90;;;;;;5054965;28;20481;-52
2024/02/12 02:36:02;;;;;;;9.18;5.63;;;20.40;99.90;;;;;;5055097;28;20112;-53
2024/02/12 02:38:28;;;;;;;10.87;5.77;;;20.40;99.90;;;;;;5055034;28;20067;-51
2024/02/12 02:40:54;;;;;;;7.95;4.97;;;20.40;99.90;;;;;;5055085;28;20315;-52
2024/02/12 02:43:20;;;;;;;10.88;5.50;;;20.40;99.90;;;;;;5053790;28;20024;-52
2024/02/12 02:45:46;;;;;;;7.78;4.82;;;20.40;99.90;;;;;;5053647;28;20554;-51
2024/02/12 02:48:12;;;;;;;9.57;5.47;;;20.40;99.90;;;;;;5053624;28;20094;-51
2024/02/12 02:50:38;;;;;;;12.30;5.18;;;20.40;99.90;;;;;;5054952;28;20029;-51
2024/02/12 02:53:04;;;;;;;9.00;5.43;;;20.40;99.90;;;;;;5054696;28;20108;-51
2024/02/12 02:55:30;;;;;;;9.02;5.28;;;20.40;99.90;;;;;;5053621;28;20578;-51
2024/02/12 02:58:01;;;;;;;9.70;4.97;;;20.40;99.90;;;;;;5054844;28;20025;-51
2024/02/12 03:00:30;;;;;;;7.60;4.43;;;20.40;99.90;;;;;;5068044;23;20056;-58
2024/02/12 03:02:57;;;;;;;8.23;4.93;;;20.40;99.90;;;;;;5073344;28;20126;-55
2024/02/12 03:05:23;;;;;;;10.07;5.23;;;20.40;99.90;;;;;;5072206;28;20431;-56
2024/02/12 03:07:49;;;;;;;8.20;4.97;;;20.40;99.90;;;;;;5073509;28;20392;-56
2024/02/12 03:10:15;;;;;;;7.70;4.63;;;20.40;99.90;;;;;;5073308;28;20111;-56
2024/02/12 03:12:43;;;;;;;10.27;5.13;;;20.40;99.90;;;;;;5074605;28;20016;-55
2024/02/12 03:15:11;;;;;;;9.18;5.53;;;20.50;99.90;;;;;;5074603;28;20023;-55
2024/02/12 03:17:39;;;;;;;10.85;4.57;;;20.40;99.90;;;;;;5074622;28;20028;-55
2024/02/12 03:20:09;;;;;;;6.90;4.10;;;20.40;99.90;;;;;;5074353;28;20059;-55
2024/02/12 03:22:35;;;;;;;9.15;4.40;;;20.50;99.90;;;;;;5074425;28;20016;-55
2024/02/12 03:25:01;;;;;;;8.98;4.57;;;20.40;99.90;;;;;;5074239;28;20055;-54
2024/02/12 03:27:27;;;;;;;8.13;4.88;;;20.50;99.90;;;;;;5074117;28;20016;-56
2024/02/12 03:29:53;;;;;;;7.82;4.60;;;20.40;99.90;;;;;;5074122;28;20440;-55
2024/02/12 03:32:18;;;;;;;6.82;4.07;;;20.40;99.90;;;;;;5074171;28;20021;-57
2024/02/12 03:34:45;;;;;;;8.45;4.10;;;20.40;99.90;;;;;;5074271;28;20027;-56
2024/02/12 03:37:13;;;;;;;7.45;4.53;;;20.50;99.90;;;;;;5074112;28;20047;-56
2024/02/12 03:39:39;;;;;;;7.95;4.18;;;20.40;99.90;;;;;;5074336;28;20430;-56
2024/02/12 03:42:08;;;;;;;8.68;4.50;;;20.50;99.90;;;;;;5074027;28;20033;-55
2024/02/12 03:44:34;;;;;;;9.10;4.82;;;20.40;99.90;;;;;;5072812;28;20024;-56
2024/02/12 03:47:00;;;;;;;10.52;4.00;;;20.50;99.90;;;;;;5074097;28;20024;-56
2024/02/12 04:00:24;;;;;;;9.20;3.88;;;20.50;99.90;;;;;;5073951;28;20052;-57
2024/02/12 04:02:50;;;;;;;7.57;3.80;;;20.50;99.90;;;;;;5072282;28;20043;-56
2024/02/12 04:05:17;;;;;;;6.72;4.18;;;20.50;99.90;;;;;;5073356;28;20481;-55
2024/02/12 04:07:43;;;;;;;;;;;20.50;99.90;;;;;;5073816;28;20468;-56
2024/02/12 04:10:12;;;;;;;9.70;4.22;;;20.50;99.90;;;;;;5073289;28;19904;-57
2024/02/12 04:12:39;;;;;;;13.85;4.68;;;20.50;99.90;;;;;;5073265;28;20025;-56
2024/02/12 04:15:10;;;;;;;11.07;4.13;;;20.50;99.90;;;;;;5071996;28;20120;-56
2024/02/12 04:17:37;;;;;;;9.60;4.25;;;20.50;99.90;;;;;;5073174;28;20059;-56
2024/02/12 04:20:05;;;;;;;9.88;3.35;;;20.50;99.90;;;;;;5071741;28;20067;-56
2024/02/12 04:22:35;;;;;;;11.02;3.90;;;20.50;99.90;;;;;;5073368;28;20028;-56
2024/02/12 04:25:01;;;;;;;11.98;4.10;;;20.50;99.90;;;;;;5073131;28;20033;-56
2024/02/12 04:27:28;;;;;;;11.25;3.92;;;20.50;99.90;;;;;;5072899;28;20403;-56
2024/02/12 04:29:57;;;;;;;11.77;3.67;;;20.50;99.90;;;;;;5072940;28;20078;-56
2024/02/12 04:32:23;;;;;;;13.25;5.10;;;20.50;99.90;;;;;;5072921;28;20024;-56
2024/02/12 04:34:48;;;;;;;10.35;4.30;;;20.50;99.90;;;;;;5072820;28;20024;-56
2024/02/12 04:37:14;;;;;;;7.60;3.42;;;20.50;99.90;;;;;;5072887;28;20386;-56
2024/02/12 04:39:40;;;;;;;7.72;3.15;;;20.50;99.90;;;;;;5072782;28;20383;-56
2024/02/12 04:42:06;;;;;;;10.38;4.25;;;20.50;99.90;;;;;;5072708;28;20448;-55
2024/02/12 04:44:32;;;;;;;8.55;3.80;;;20.50;99.90;;;;;;5072813;28;20104;-56
2024/02/12 04:47:01;;;;;;;7.40;3.60;;;20.50;99.90;;;;;;5072549;28;20027;-56
2024/02/12 04:49:30;;;;;;;5.20;3.25;;;20.50;99.90;;;;;;5072644;28;20027;-56
2024/02/12 04:51:56;;;;;;;12.32;3.50;;;20.50;99.90;;;;;;5072573;28;20017;-56
2024/02/12 04:54:23;;;;;;;9.00;3.78;;;20.50;99.90;;;;;;5072652;28;20032;-56
2024/02/12 04:56:49;;;;;;;8.95;3.10;;;20.50;99.90;;;;;;5072643;28;20067;-56
2024/02/12 04:59:16;;;;;;;10.77;3.30;;;20.50;99.90;;;;;;5054689;28;20549;-57
2024/02/12 05:01:42;;;;;;;10.38;4.00;;;20.50;99.90;;;;;;5072940;28;20072;-57
2024/02/12 05:04:08;;;;;;;9.95;3.40;;;20.50;99.90;;;;;;5072395;28;20048;-57
2024/02/12 05:06:37;;;;;;;8.57;3.33;;;20.50;99.90;;;;;;5072724;28;20028;-57
2024/02/12 05:09:09;;;;;;;16.17;4.35;;;20.50;99.90;;;;;;5072544;28;20490;-56
2024/02/12 05:11:35;;;;;;;7.80;3.05;;;20.50;99.90;;;;;;5072444;28;20020;-57
2024/02/12 05:14:01;;;;;;;8.32;3.00;;;20.50;99.90;;;;;;5072539;28;20147;-56
2024/02/12 05:16:32;;;;;;;7.85;3.70;;;20.50;99.90;;;;;;5072347;28;20107;-56
2024/02/12 05:24:27;;;;;;;8.18;3.13;;;20.50;99.90;;;;;;5072030;28;20039;-56
2024/02/12 05:26:55;;;;;;;9.63;3.85;;;20.50;99.90;;;;;;5071657;28;20460;-56
2024/02/12 05:29:21;;;;;;;8.70;4.18;;;20.50;99.90;;;;;;5072185;28;20052;-57
2024/02/12 05:31:47;;;;;;;7.03;3.30;;;20.50;99.90;;;;;;5072166;28;20055;-56
2024/02/12 05:34:13;;;;;;;7.65;3.28;;;20.50;99.90;;;;;;5070681;28;20024;-56
2024/02/12 05:36:41;;;;;;;11.45;3.45;;;20.50;99.90;;;;;;5072049;28;20445;-57
2024/02/12 05:39:09;;;;;;;7.35;3.00;;;20.50;99.90;;;;;;5072317;28;20380;-56
2024/02/12 05:41:35;;;;;;;6.55;3.15;;;20.50;99.90;;;;;;5072331;28;20035;-57
2024/02/12 05:44:01;;;;;;;9.10;3.67;;;20.50;99.90;;;;;;5071986;28;20040;-57
2024/02/12 05:46:27;;;;;;;7.78;2.83;;;20.50;99.90;;;;;;5071865;28;20029;-56
2024/02/12 05:48:54;;;;;;;5.28;2.90;;;20.50;99.90;;;;;;5071889;28;20021;-56
2024/02/12 05:51:19;;;;;;;10.25;3.28;;;20.50;99.90;;;;;;5071829;28;20036;-57
2024/02/12 05:53:47;;;;;;;5.80;2.83;;;20.50;99.90;;;;;;5072054;28;20032;-56
2024/02/12 05:56:12;;;;;;;5.97;2.92;;;20.50;99.90;;;;;;5071955;28;20388;-57
2024/02/12 05:58:38;;;;;;;6.90;3.70;;;20.50;99.90;;;;;;5072074;28;20031;-57
2024/02/12 06:01:04;;;;;;;8.57;3.47;;;20.50;99.90;;;;;;5066391;28;20492;-57
2024/02/12 06:03:30;;;;;;;8.60;3.42;;;20.50;99.90;;;;;;5051860;28;20481;-57
2024/02/12 06:05:58;;;;;;;8.77;3.47;;;20.50;99.90;;;;;;5051415;28;20059;-57
2024/02/12 06:08:24;;;;;;;6.38;3.20;;;20.50;99.90;;;;;;5050170;28;20108;-56
2024/02/12 06:10:50;;;;;;;11.02;3.20;;;20.50;99.90;;;;;;5051827;28;20104;-56
2024/02/12 06:13:17;;;;;;;13.85;3.72;;;20.50;99.90;;;;;;5050897;28;20445;-56
2024/02/12 06:15:43;;;;;;;8.70;3.97;;;20.50;99.90;;;;;;5051769;28;20024;-56
2024/02/12 06:18:10;;;;;;;6.95;3.05;;;20.50;99.90;;;;;;5051600;28;20040;-56
2024/02/12 06:20:35;;;;;;;7.75;3.47;;;20.50;99.90;;;;;;5051966;28;20329;-56
2024/02/12 06:23:02;;;;;;;11.73;3.75;;;20.50;99.90;;;;;;5051625;28;20366;-56
2024/02/12 06:25:28;;;;;;;13.07;3.30;;;20.50;99.90;;;;;;5050268;28;20037;-56
2024/02/12 06:27:54;;;;;;;8.88;3.58;;;20.50;99.90;;;;;;5051545;28;20079;-56
2024/02/12 06:30:20;;;;;;;9.25;3.22;;;20.50;99.90;;;;;;5051432;28;20025;-56
2024/02/12 06:32:46;;;;;;;7.22;3.30;;;20.50;99.90;;;;;;5051491;28;20057;-56
2024/02/12 06:35:12;;;;;;;9.30;3.28;;;20.50;99.90;;;;;;5051613;28;20025;-55
2024/02/12 06:37:38;;;;;;;11.52;3.60;;;20.50;99.90;;;;;;5051623;28;20040;-55
2024/02/12 06:40:06;;;;;;;7.65;3.33;;;20.50;99.90;;;;;;5053223;28;20028;-56
2024/02/12 06:42:32;;;;;;;8.23;3.40;;;20.50;99.90;;;;;;5055091;28;20374;-55
2024/02/12 06:44:58;;;;;;;7.40;3.05;;;20.50;99.90;;;;;;5054858;28;20037;-56
2024/02/12 06:47:23;;;;;;;7.97;3.78;;;20.50;99.90;;;;;;5054826;28;20021;-56
2024/02/12 06:49:49;;;;;;;12.00;3.80;;;20.50;99.90;;;;;;5054636;28;20041;-55
2024/02/12 06:52:15;;;;;;;11.55;3.33;;;20.50;99.90;;;;;;5054820;28;20108;-55
2024/02/12 06:54:41;;;;;;;8.98;3.70;;;20.50;99.90;;;;;;5054662;28;20021;-57
2024/02/12 06:57:07;;;;;;;8.30;3.17;;;20.50;99.90;;;;;;5054806;28;20029;-57
2024/02/12 06:59:33;;;;;;;8.70;3.67;;;20.50;99.90;;;;;;5054669;28;20079;-57
2024/02/12 07:01:59;;;;;;;7.53;3.23;;;20.50;99.90;;;;;;5054388;28;20033;-57
2024/02/12 07:04:25;;;;;;;9.38;3.75;;;20.50;99.90;;;;;;5053155;28;20472;-57
2024/02/12 07:06:51;;;;;;;11.07;3.53;;;20.50;99.90;;;;;;5054656;28;20075;-57
2024/02/12 07:09:17;;;;;;;7.38;2.85;;;20.50;99.90;;;;;;5054550;28;20044;-57
2024/02/12 07:11:42;;;;;;;9.00;3.97;;;20.50;99.90;;;;;;5054434;28;20071;-57
2024/02/12 07:14:08;;;;;;;6.25;3.17;;;20.50;99.90;;;;;;5054460;28;20036;-58
2024/02/12 07:16:34;;;;;;;8.75;3.05;;;20.50;99.90;;;;;;5054242;28;20025;-56
2024/02/12 07:19:00;;;;;;;9.18;3.55;;;20.50;99.90;;;;;;5052944;28;20480;-56
2024/02/12 07:21:26;;;;;;;10.60;3.03;;;20.50;99.90;;;;;;5054111;28;20025;-56
2024/02/12 07:23:52;;;;;;;8.70;3.73;;;20.50;99.90;;;;;;5054018;28;20025;-56
2024/02/12 07:26:19;;;;;;;9.70;3.63;;;20.50;99.90;;;;;;5053953;28;20036;-56
2024/02/12 07:28:47;;;;;;;10.50;3.78;;;20.50;99.90;;;;;;5053926;28;20101;-56
2024/02/12 07:31:13;;;;;;;8.35;2.90;;;20.50;99.90;;;;;;5053924;28;20025;-56
2024/02/12 07:33:38;;;;;;;6.72;2.92;;;20.50;99.90;;;;;;5054105;28;20075;-56
2024/02/12 07:36:05;;;;;;;8.40;3.47;;;20.50;99.90;;;;;;5053851;28;20131;-56
2024/02/12 07:38:32;;;;;;;9.07;3.08;;;20.50;99.90;;;;;;5054013;28;20029;-56
2024/02/12 07:40:58;;;;;;;10.10;3.35;;;20.50;99.90;;;;;;5053932;28;20385;-57
2024/02/12 07:43:25;;;;;;;11.43;3.42;;;20.50;99.90;;;;;;5053920;28;20071;-56
2024/02/12 07:45:55;;;;;;;10.70;3.33;;;20.50;99.90;;;;;;5053685;28;20065;-56
2024/02/12 07:48:21;;;;;;;8.27;2.97;;;20.50;99.90;;;;;;5053845;28;20381;-56
2024/02/12 07:50:47;;;;;;;9.85;3.60;;;20.50;99.90;;;;;;5053113;28;20476;-57
2024/02/12 07:53:13;;;;;;;7.93;3.10;;;20.50;99.90;;;;;;5053804;28;20048;-56
2024/02/12 07:55:39;;;;;;;6.93;2.67;;;20.50;99.90;;;;;;5053780;28;20043;-57
2024/02/12 07:58:04;;;;;;;6.75;3.17;;;20.50;99.90;;;;;;5053462;28;20025;-56
2024/02/12 08:00:30;;;;;;;6.90;3.58;;;20.60;99.90;;;;;;5053197;28;20557;-56
2024/02/12 08:02:56;;;;;;;9.15;3.17;;;20.60;99.90;;;;;;5053352;28;20354;-57
2024/02/12 08:05:22;;;;;;;8.05;3.40;;;20.60;99.90;;;;;;5051944;28;20111;-57
2024/02/12 08:07:47;;;;;;;9.88;3.63;;;20.60;99.90;;;;;;5051961;28;20107;-56
2024/02/12 08:10:16;;;;;;;9.55;3.15;;;20.60;99.90;;;;;;5052503;28;20025;-57
2024/02/12 08:12:42;;;;;;;9.02;3.03;;;20.60;99.90;;;;;;5053436;28;20114;-57
2024/02/12 08:15:11;;;;;;;6.68;2.97;;;20.60;99.90;;;;;;5052997;28;20483;-57
2024/02/12 08:17:36;;;;;;;8.23;2.85;;;20.60;99.90;;;;;;5051863;28;20032;-56
2024/02/12 08:20:07;;;;;;;9.07;3.15;;;20.60;99.90;;;;;;5053002;28;20029;-56
2024/02/12 08:22:33;;;;;;;7.03;3.08;;;20.60;99.90;;;;;;5052990;28;20025;-56
2024/02/12 08:24:59;;;;;;;6.40;3.25;;;20.70;99.90;;;;;;5052918;28;20037;-56
2024/02/12 08:27:26;;;;;;;7.43;2.80;;;20.60;99.90;;;;;;5052885;28;20028;-56
2024/02/12 08:29:52;;;;;;;8.40;3.33;;;20.70;99.90;;;;;;5052979;28;20025;-56
2024/02/12 08:32:18;;;;;;;8.20;3.60;;;20.70;99.90;;;;;;5052957;28;20017;-56
2024/02/12 08:34:44;;;;;;;9.55;3.40;;;20.70;99.90;;;;;;5053003;28;20021;-56
2024/02/12 08:37:10;;;;;;;7.50;3.17;;;20.70;99.90;;;;;;5051952;28;20021;-56
2024/02/12 08:39:41;;;;;;;7.78;2.92;;;20.70;99.90;;;;;;5052748;28;20036;-56
2024/02/12 08:42:06;;;;;;;8.65;2.80;;;20.70;99.90;;;;;;5051427;28;20028;-57
2024/02/12 08:44:32;;;;;;;7.45;3.25;;;20.70;99.90;;;;;;5052609;28;20036;-57
2024/02/12 08:47:01;;;;;;;11.85;3.25;;;20.80;99.90;;;;;;5052652;28;20017;-57
2024/02/12 08:49:27;;;;;;;6.50;3.25;;;20.80;99.90;;;;;;5052535;28;20376;-57
2024/02/12 08:51:53;;;;;;;8.60;3.58;;;20.80;99.90;;;;;;5052559;28;20099;-57
2024/02/12 08:54:22;;;;;;;10.88;3.92;;;20.80;99.90;;;;;;5051131;28;20021;-57
2024/02/12 08:56:51;;;;;;;8.13;3.75;;;20.80;99.90;;;;;;5052521;28;20032;-56
2024/02/12 08:59:20;;;;;;;8.75;4.05;;;20.80;99.90;;;;;;5052639;28;20408;-57
2024/02/12 09:01:47;;;;;;;10.77;3.92;;;20.80;99.90;;;;;;5052311;28;20073;-56
2024/02/12 09:04:13;;;;;;;8.98;3.63;;;20.80;99.90;;;;;;5052554;28;20025;-57
2024/02/12 09:06:39;;;;;;;7.38;3.70;;;20.80;99.90;;;;;;5052373;28;20036;-57
2024/02/12 09:09:04;;;;;;;7.72;3.60;;;20.80;99.90;;;;;;5052328;28;20385;-57
2024/02/12 09:11:30;;;;;;;7.70;3.90;;;20.90;99.90;;;;;;5052385;28;20342;-57
2024/02/12 09:13:56;;;;;;;10.35;4.70;;;20.80;99.90;;;;;;5052392;28;20052;-57
2024/02/12 09:16:22;;;;;;;15.68;5.97;;;20.90;99.90;;;;;;5050772;28;20095;-57
2024/02/12 09:18:47;;;;;;;12.25;5.88;;;20.90;99.90;;;;;;5050822;28;20025;-56
2024/02/12 09:21:13;;;;;;;11.80;6.75;;;20.90;99.90;;;;;;5052395;28;20354;-57
2024/02/12 09:23:40;;;;;;;15.35;7.45;;;20.90;99.90;;;;;;5051979;28;20036;-56
2024/02/12 09:26:06;;;;;;;12.40;7.03;;;20.90;99.90;;;;;;5052031;28;20385;-56
2024/02/12 09:28:32;;;;;;;14.85;8.57;;;20.90;99.90;;;;;;5052205;28;20029;-56
2024/02/12 09:31:00;;;;;;;14.73;9.60;;;20.90;99.90;;;;;;5052191;28;20477;-57
2024/02/12 09:33:30;;;;;;;14.30;8.52;;;20.90;99.90;;;;;;5051961;28;20028;-57
2024/02/12 09:35:57;;;;;;;16.58;10.50;;;20.90;99.90;;;;;;5051957;28;20044;-57
2024/02/12 09:38:22;;;;;;;19.27;12.02;;;20.90;99.90;;;;;;5052303;28;20354;-57
2024/02/12 09:40:49;;;;;;;17.45;12.15;;;20.90;99.90;;;;;;5051970;28;20021;-56
2024/02/12 09:43:15;;;;;;;19.67;12.40;;;20.90;99.90;;;;;;5052008;28;20029;-56
2024/02/12 09:45:44;;;;;;;25.48;14.80;;;20.90;99.90;;;;;;5051812;28;20037;-57
2024/02/12 09:48:14;;;;;;;26.27;16.13;;;20.90;99.90;;;;;;5051938;28;20065;-56
2024/02/12 09:50:44;;;;;;;28.88;18.23;;;20.90;99.90;;;;;;5051739;28;20029;-56
2024/02/12 09:53:23;;;;;;;27.88;17.52;;;20.90;99.90;;;;;;5051603;28;20032;-57
2024/02/12 09:55:49;;;;;;;29.52;18.30;;;20.90;99.90;;;;;;5051953;28;20108;-56
2024/02/12 09:58:15;;;;;;;32.35;20.10;;;21.00;99.90;;;;;;5050924;28;20584;-56
2024/02/12 10:00:45;;;;;;;29.85;18.85;;;20.90;99.90;;;;;;5051613;28;20068;-56
2024/02/12 10:03:11;;;;;;;31.52;19.38;;;20.90;99.90;;;;;;5051803;28;20473;-57
2024/02/12 10:05:43;;;;;;;29.05;18.15;;;21.00;99.90;;;;;;5051489;28;20036;-56
2024/02/12 10:08:26;;;;;;;35.20;21.17;;;21.00;99.90;;;;;;5051517;28;20013;-57
2024/02/12 10:10:52;;;;;;;27.73;18.13;;;21.00;99.90;;;;;;5051625;28;20100;-56
2024/02/12 10:13:23;;;;;;;32.10;20.05;;;21.00;99.90;;;;;;5052606;28;20028;-57
2024/02/12 10:15:50;;;;;;;31.08;19.08;;;21.00;99.90;;;;;;5054343;28;20460;-56
2024/02/12 10:18:16;;;;;;;29.60;18.75;;;21.00;99.90;;;;;;5055797;28;20028;-56
2024/02/12 10:20:42;;;;;;;26.23;17.33;;;21.00;99.90;;;;;;5055369;28;20029;-55
2024/02/12 10:23:09;;;;;;;32.25;18.70;;;21.00;99.90;;;;;;5055425;28;20113;-55
2024/02/12 10:25:43;;;;;;;32.67;20.23;;;21.00;99.90;;;;;;5055311;28;20065;-55
2024/02/12 10:28:15;;;;;;;28.90;19.20;;;21.00;99.90;;;;;;5055169;28;20017;-56
2024/02/12 10:30:46;;;;;;;31.40;19.30;;;21.10;99.90;;;;;;5055184;28;20472;-55
2024/02/12 10:33:13;;;;;;;30.38;18.33;;;21.10;99.90;;;;;;5055215;28;20017;-56
2024/02/12 10:35:41;;;;;;;32.55;20.30;;;21.10;99.90;;;;;;5055241;28;20029;-56
2024/02/12 10:38:07;;;;;;;29.98;18.90;;;21.10;99.90;;;;;;5054996;28;20033;-56
2024/02/12 10:41:05;;;;;;;31.05;19.33;;;21.10;99.90;;;;;;5054950;28;20461;-56
2024/02/12 10:43:32;;;;;;;26.13;19.17;;;21.10;99.90;;;;;;5055058;28;20108;-57
2024/02/12 10:46:00;;;;;;;34.45;19.80;;;21.10;99.90;;;;;;5054970;28;20137;-56
2024/02/12 10:48:27;;;;;;;;;;;21.10;99.90;;;;;;5055393;28;20037;-56
2024/02/12 10:50:56;;;;;;;29.48;19.35;;;21.20;99.90;;;;;;5053548;28;19959;-56
2024/02/12 10:53:41;;;;;;;34.42;20.83;;;21.20;99.90;;;;;;5053416;28;20445;-56
2024/02/12 10:56:08;;;;;;;29.77;18.67;;;21.20;99.90;;;;;;5054531;28;20392;-56
2024/02/12 10:58:35;;;;;;;31.67;19.25;;;21.20;99.90;;;;;;5054691;28;20388;-56
2024/02/12 11:01:01;;;;;;;31.48;20.67;;;21.20;99.90;;;;;;5054495;28;20203;-55
2024/02/12 11:03:34;;;;;;;34.90;19.85;;;21.20;99.90;;;;;;5054544;28;20025;-55
2024/02/12 11:06:01;;;;;;;33.85;21.00;;;21.20;99.90;;;;;;5054384;28;20040;-56
2024/02/12 11:08:27;;;;;;;35.83;21.50;;;21.20;99.90;;;;;;5054377;28;20469;-56
2024/02/12 11:10:59;;;;;;;32.80;20.40;;;21.30;99.90;;;;;;5054555;28;20053;-56
2024/02/12 11:13:36;;;;;;;38.08;21.80;;;21.30;99.90;;;;;;5054541;28;20021;-56
2024/02/12 11:16:03;;;;;;;30.70;19.92;;;21.30;99.90;;;;;;5054408;28;20017;-55
2024/02/12 11:18:35;;;;;;;28.70;18.30;;;21.30;99.90;;;;;;5054351;28;20380;-56
2024/02/12 11:21:02;;;;;;;30.48;18.48;;;21.40;99.90;;;;;;5052891;28;20029;-55
2024/02/12 11:23:28;;;;;;;32.17;18.75;;;21.40;99.90;;;;;;5054076;28;20469;-55
2024/02/12 11:26:02;;;;;;;26.50;17.25;;;21.40;99.90;;;;;;5052068;28;20086;-55
2024/02/12 11:28:30;;;;;;;25.70;17.20;;;21.40;99.90;;;;;;5054092;28;20025;-56
2024/02/12 11:30:57;;;;;;;31.27;16.52;;;21.50;99.90;;;;;;5053837;28;20029;-55
2024/02/12 11:33:24;;;;;;;22.88;15.85;;;21.50;99.90;;;;;;5054303;28;20112;-55
2024/02/12 11:35:50;;;;;;;26.05;15.85;;;21.50;99.90;;;;;;5054209;28;20489;-55
2024/02/12 11:38:17;;;;;;;24.50;15.32;;;21.50;99.90;;;;;;5053716;28;20083;-56
2024/02/12 11:40:43;;;;;;;28.40;16.13;;;21.50;99.90;;;;;;5053765;28;20484;-55
2024/02/12 11:43:10;;;;;;;22.17;15.30;;;21.50;99.90;;;;;;5053746;28;20032;-55
2024/02/12 11:45:35;;;;;;;23.20;13.57;;;21.50;99.90;;;;;;5053689;28;20481;-55
2024/02/12 11:48:10;;;;;;;21.92;14.00;;;21.50;99.90;;;;;;5053542;28;20040;-55
2024/02/12 11:50:37;;;;;;;23.70;13.55;;;21.50;99.90;;;;;;5053675;28;20099;-56
2024/02/12 11:53:07;;;;;;;20.50;13.43;;;21.60;99.90;;;;;;5053612;28;20025;-56
2024/02/12 11:55:33;;;;;;;24.30;13.30;;;21.50;99.90;;;;;;5053501;28;20032;-55
2024/02/12 11:57:59;;;;;;;19.00;13.30;;;21.50;99.90;;;;;;5053327;28;20025;-56
2024/02/12 12:00:25;;;;;;;18.42;11.32;;;21.60;99.90;;;;;;5052386;28;20029;-56
2024/02/12 12:02:52;;;;;;;21.17;11.88;;;21.60;99.90;;;;;;5053581;28;20033;-56
2024/02/12 12:05:23;;;;;;;17.83;11.73;;;21.60;99.90;;;;;;5053318;28;20033;-56
2024/02/12 12:07:49;;;;;;;18.95;11.30;;;21.60;99.90;;;;;;5053310;28;20032;-55
2024/02/12 12:10:27;;;;;;;18.38;11.27;;;21.60;99.90;;;;;;5053200;28;20381;-56
2024/02/12 12:12:56;;;;;;;17.15;10.75;;;21.50;99.90;;;;;;5052103;28;20021;-56
2024/02/12 12:15:22;;;;;;;19.17;11.07;;;21.60;99.90;;;;;;5053447;28;20074;-55
2024/02/12 12:17:48;;;;;;;16.25;10.40;;;21.60;99.90;;;;;;5051906;28;20527;-55
2024/02/12 12:20:18;;;;;;;19.58;10.75;;;21.60;99.90;;;;;;5053100;28;20182;-56
2024/02/12 12:22:45;;;;;;;17.27;9.55;;;21.60;99.90;;;;;;5053044;28;20096;-55
2024/02/12 12:25:24;;;;;;;15.68;9.80;;;21.50;99.90;;;;;;5052940;28;20051;-56
2024/02/12 12:27:50;;;;;;;15.27;10.02;;;21.60;99.90;;;;;;5052945;28;20053;-55
2024/02/12 12:30:18;;;;;;;16.00;9.80;;;21.60;99.90;;;;;;5051649;28;20025;-55
2024/02/12 12:32:44;;;;;;;;;;;21.60;99.90;;;;;;5052055;28;20099;-56
2024/02/12 12:35:10;;;;;;;14.10;9.25;;;21.60;99.90;;;;;;5053001;28;19912;-55
2024/02/12 12:37:38;;;;;;;13.13;9.27;;;21.60;99.90;;;;;;5052730;28;20423;-56
2024/02/12 12:40:08;;;;;;;14.57;8.57;;;21.60;99.90;;;;;;5052762;28;20092;-54
2024/02/12 12:42:40;;;;;;;20.92;8.93;;;21.60;99.90;;;;;;5052748;28;20036;-53
2024/02/12 12:45:10;;;;;;;15.55;7.70;;;21.60;99.90;;;;;;5052555;28;20532;-53
2024/02/12 12:47:37;;;;;;;19.85;8.45;;;21.60;99.90;;;;;;5052659;28;20112;-54
2024/02/12 12:50:09;;;;;;;15.83;8.37;;;21.60;99.90;;;;;;5052550;28;20587;-57
2024/02/12 12:52:38;;;;;;;19.45;8.75;;;21.70;99.90;;;;;;5052362;28;20021;-55
2024/02/12 12:55:07;;;;;;;26.88;8.95;;;21.60;99.90;;;;;;5052529;28;20539;-57
2024/02/12 12:57:36;;;;;;;13.63;8.73;;;21.70;99.90;;;;;;5052790;28;20075;-57